createdAt,value
2019-03-19T00:00:33.959Z,5.16
2019-03-19T00:03:05.400Z,4.93
2019-03-19T00:05:36.842Z,4.96
2019-03-19T00:08:08.235Z,4.95
2019-03-19T00:10:39.562Z,4.70
2019-03-19T00:13:10.905Z,4.75
2019-03-19T00:15:42.244Z,4.91
2019-03-19T00:18:13.603Z,4.93
2019-03-19T00:20:44.941Z,4.75
2019-03-19T00:23:16.347Z,4.78
2019-03-19T00:25:47.758Z,4.59
2019-03-19T00:28:19.142Z,4.44
2019-03-19T00:30:50.524Z,4.44
2019-03-19T00:33:21.956Z,4.18
2019-03-19T00:35:53.365Z,4.18
2019-03-19T00:38:24.802Z,4.35
2019-03-19T00:40:56.232Z,4.36
2019-03-19T00:43:27.652Z,4.33
2019-03-19T00:45:59.061Z,4.50
2019-03-19T00:48:30.421Z,4.59
2019-03-19T00:51:01.769Z,4.48
2019-03-19T00:53:33.106Z,4.47
2019-03-19T00:56:04.456Z,4.57
2019-03-19T00:58:35.791Z,4.43
2019-03-19T01:01:07.185Z,4.53
2019-03-19T01:03:38.599Z,4.61
2019-03-19T01:06:09.925Z,4.64
2019-03-19T01:08:41.281Z,4.69
2019-03-19T01:11:12.622Z,4.66
2019-03-19T01:13:43.962Z,4.73
2019-03-19T01:16:15.370Z,4.70
2019-03-19T01:18:46.794Z,4.70
2019-03-19T01:21:18.135Z,4.59
2019-03-19T01:23:49.524Z,4.47
2019-03-19T01:26:20.926Z,4.45
2019-03-19T01:28:52.315Z,4.49
2019-03-19T01:31:23.633Z,4.53
2019-03-19T01:33:54.986Z,4.41
2019-03-19T01:36:26.303Z,4.47
2019-03-19T01:38:57.697Z,4.29
2019-03-19T01:41:28.948Z,4.46
2019-03-19T01:44:00.317Z,4.44
2019-03-19T01:46:31.700Z,4.32
2019-03-19T01:49:03.024Z,4.15
2019-03-19T01:51:34.335Z,4.44
2019-03-19T01:54:05.674Z,4.45
2019-03-19T01:56:37.103Z,4.16
2019-03-19T01:59:08.515Z,4.37
2019-03-19T02:01:39.929Z,4.36
2019-03-19T02:04:11.313Z,4.35
2019-03-19T02:06:42.654Z,4.22
2019-03-19T02:09:14.055Z,4.18
2019-03-19T02:11:45.431Z,4.21
2019-03-19T02:14:16.768Z,4.13
2019-03-19T02:16:48.019Z,4.15
2019-03-19T02:19:19.336Z,4.12
2019-03-19T02:21:50.687Z,4.10
2019-03-19T02:24:22.003Z,4.01
2019-03-19T02:26:53.438Z,3.95
2019-03-19T02:29:24.800Z,4.17
2019-03-19T02:31:56.104Z,4.19
2019-03-19T02:34:27.377Z,4.07
2019-03-19T02:36:58.811Z,4.10
2019-03-19T02:39:30.153Z,4.10
2019-03-19T02:42:01.464Z,4.23
2019-03-19T02:44:32.808Z,4.22
2019-03-19T02:47:04.143Z,4.37
2019-03-19T02:49:35.517Z,4.38
2019-03-19T02:52:06.946Z,4.47
2019-03-19T02:54:39.266Z,4.39
2019-03-19T02:57:10.616Z,4.37
2019-03-19T02:59:41.910Z,4.18
2019-03-19T03:02:13.255Z,4.31
2019-03-19T03:04:44.646Z,4.39
2019-03-19T03:07:16.774Z,4.36
2019-03-19T03:09:48.082Z,4.20
2019-03-19T03:12:19.367Z,4.46
2019-03-19T03:14:50.693Z,4.53
2019-03-19T03:17:22.115Z,4.55
2019-03-19T03:19:53.375Z,4.66
2019-03-19T03:22:24.679Z,4.49
2019-03-19T03:24:55.953Z,4.57
2019-03-19T03:27:27.279Z,4.62
2019-03-19T03:29:58.679Z,4.51
2019-03-19T03:32:29.986Z,4.51
2019-03-19T03:35:01.389Z,4.48
2019-03-19T03:37:32.502Z,4.58
2019-03-19T03:40:04.920Z,4.45
2019-03-19T03:42:36.175Z,4.55
2019-03-19T03:45:10.726Z,4.48
2019-03-19T03:47:42.981Z,4.34
2019-03-19T03:50:15.704Z,4.40
2019-03-19T03:52:47.079Z,4.34
2019-03-19T03:55:19.922Z,4.35
2019-03-19T03:57:51.291Z,4.56
2019-03-19T04:00:23.979Z,4.19
2019-03-19T04:02:55.711Z,4.44
2019-03-19T04:05:27.159Z,4.44
2019-03-19T04:07:58.608Z,4.39
2019-03-19T04:10:30.380Z,4.41
2019-03-19T04:13:01.816Z,4.53
2019-03-19T04:15:33.279Z,4.55
2019-03-19T04:18:04.703Z,4.47
2019-03-19T04:20:36.062Z,4.56
2019-03-19T04:23:07.460Z,4.65
2019-03-19T04:25:38.808Z,4.68
2019-03-19T04:28:10.190Z,4.61
2019-03-19T04:30:41.560Z,4.81
2019-03-19T04:33:12.964Z,4.93
2019-03-19T04:35:44.384Z,4.78
2019-03-19T04:38:15.707Z,5.01
2019-03-19T04:40:49.505Z,5.27
2019-03-19T04:43:20.619Z,5.22
2019-03-19T04:45:55.474Z,5.20
2019-03-19T04:48:26.839Z,5.47
2019-03-19T04:50:58.264Z,5.54
2019-03-19T04:53:29.642Z,5.56
2019-03-19T04:56:01.001Z,5.62
2019-03-19T04:58:32.867Z,5.92
2019-03-19T05:01:04.625Z,6.00
2019-03-19T05:03:36.043Z,6.18
2019-03-19T05:06:07.446Z,6.25
2019-03-19T05:08:38.867Z,6.12
2019-03-19T05:11:10.258Z,5.94
2019-03-19T05:13:41.658Z,5.98
2019-03-19T05:16:12.997Z,5.69
2019-03-19T05:18:44.406Z,5.99
2019-03-19T05:21:15.848Z,6.02
2019-03-19T05:23:47.177Z,6.01
2019-03-19T05:26:18.571Z,6.23
2019-03-19T05:28:50.026Z,6.12
2019-03-19T05:31:21.327Z,6.23
2019-03-19T05:33:52.805Z,6.14
2019-03-19T05:36:24.198Z,6.40
2019-03-19T05:38:55.633Z,6.32
2019-03-19T05:41:27.036Z,6.84
2019-03-19T05:43:58.458Z,6.85
2019-03-19T05:46:29.800Z,7.26
2019-03-19T05:49:01.207Z,7.18
2019-03-19T05:51:32.685Z,7.36
2019-03-19T05:54:04.014Z,7.46
2019-03-19T05:56:35.528Z,7.61
2019-03-19T05:59:06.931Z,7.20
2019-03-19T06:01:38.358Z,7.54
2019-03-19T06:04:09.786Z,7.81
2019-03-19T06:06:41.163Z,8.03
2019-03-19T06:09:13.650Z,8.32
2019-03-19T06:11:45.055Z,8.54
2019-03-19T06:14:16.479Z,8.60
2019-03-19T06:16:47.774Z,8.65
2019-03-19T06:19:19.106Z,8.82
2019-03-19T06:21:50.428Z,9.10
2019-03-19T06:24:21.875Z,9.02
2019-03-19T06:26:53.314Z,9.49
2019-03-19T06:29:24.632Z,9.25
2019-03-19T06:31:56.007Z,9.45
2019-03-19T06:34:27.458Z,9.27
2019-03-19T06:36:58.785Z,9.82
2019-03-19T06:39:30.031Z,9.90
2019-03-19T06:42:01.390Z,10.22
2019-03-19T06:44:32.721Z,9.89
2019-03-19T06:47:04.115Z,10.17
2019-03-19T06:49:35.458Z,10.47
2019-03-19T06:52:06.864Z,10.23
2019-03-19T06:54:38.296Z,10.73
2019-03-19T06:57:09.655Z,10.62
2019-03-19T06:59:40.996Z,10.70
2019-03-19T07:02:12.391Z,10.85
2019-03-19T07:04:43.718Z,10.86
2019-03-19T07:07:15.119Z,10.99
2019-03-19T07:09:46.467Z,10.95
2019-03-19T07:12:17.805Z,10.84
2019-03-19T07:14:49.239Z,11.05
2019-03-19T07:17:20.636Z,11.18
2019-03-19T07:19:52.016Z,10.82
2019-03-19T07:22:23.458Z,11.41
2019-03-19T07:24:54.869Z,11.51
2019-03-19T07:27:26.215Z,11.66
2019-03-19T07:29:57.602Z,11.53
2019-03-19T07:32:29.052Z,11.66
2019-03-19T07:35:00.532Z,11.56
2019-03-19T07:37:33.026Z,11.61
2019-03-19T07:40:07.285Z,11.61
2019-03-19T07:42:38.634Z,11.37
2019-03-19T07:45:12.829Z,12.06
2019-03-19T07:47:44.175Z,12.39
2019-03-19T07:50:20.010Z,12.54
2019-03-19T07:52:51.383Z,12.77
2019-03-19T07:55:22.766Z,12.55
2019-03-19T07:57:54.116Z,12.23
2019-03-19T08:00:25.603Z,12.56
2019-03-19T08:02:57.041Z,12.82
2019-03-19T08:05:33.177Z,12.38
2019-03-19T08:08:01.510Z,12.56
2019-03-19T08:10:32.853Z,12.81
2019-03-19T08:13:14.930Z,12.54
2019-03-19T08:15:46.269Z,12.88
2019-03-19T08:18:17.675Z,13.28
2019-03-19T08:20:49.019Z,13.37
2019-03-19T08:23:20.411Z,13.87
2019-03-19T08:25:51.844Z,13.34
2019-03-19T08:28:23.301Z,13.07
2019-03-19T08:30:54.755Z,13.01
2019-03-19T08:33:26.118Z,12.96
2019-03-19T08:35:57.473Z,13.14
2019-03-19T08:38:28.879Z,13.26
2019-03-19T08:41:00.256Z,13.45
2019-03-19T08:43:31.762Z,13.17
2019-03-19T08:46:03.129Z,13.86
2019-03-19T08:48:34.464Z,13.96
2019-03-19T08:51:06.799Z,14.07
2019-03-19T08:53:38.215Z,14.20
2019-03-19T08:56:09.621Z,14.31
2019-03-19T08:58:40.960Z,14.39
2019-03-19T09:01:12.313Z,14.40
2019-03-19T09:03:43.715Z,14.58
2019-03-19T09:06:15.158Z,14.22
2019-03-19T09:08:46.554Z,14.31
2019-03-19T09:11:17.930Z,14.14
2019-03-19T09:13:49.358Z,14.68
2019-03-19T09:16:20.700Z,14.55
2019-03-19T09:18:52.035Z,14.98
2019-03-19T09:21:23.420Z,14.58
2019-03-19T09:23:54.662Z,14.63
2019-03-19T09:26:26.005Z,14.57
2019-03-19T09:28:57.262Z,14.82
2019-03-19T09:31:28.524Z,14.48
2019-03-19T09:33:59.837Z,14.36
2019-03-19T09:36:31.217Z,14.80
2019-03-19T09:39:02.666Z,15.03
2019-03-19T09:41:33.930Z,14.66
2019-03-19T09:44:05.335Z,14.53
2019-03-19T09:46:36.632Z,14.49
2019-03-19T09:49:08.045Z,14.51
2019-03-19T09:51:39.382Z,14.54
2019-03-19T09:54:10.846Z,15.30
2019-03-19T09:56:42.080Z,15.19
2019-03-19T09:59:13.440Z,14.87
2019-03-19T10:01:47.136Z,15.56
2019-03-19T10:04:18.437Z,15.10
2019-03-19T10:06:49.864Z,15.62
2019-03-19T10:09:21.294Z,15.71
2019-03-19T10:11:52.694Z,15.36
2019-03-19T10:14:24.175Z,15.48
2019-03-19T10:16:55.568Z,15.69
2019-03-19T10:19:26.920Z,15.99
2019-03-19T10:21:58.190Z,15.83
2019-03-19T10:24:30.612Z,15.00
2019-03-19T10:27:01.942Z,15.94
2019-03-19T10:29:38.165Z,15.46
2019-03-19T10:32:06.242Z,15.74
2019-03-19T10:34:37.679Z,16.05
2019-03-19T10:37:09.065Z,15.93
2019-03-19T10:39:43.499Z,15.85
2019-03-19T10:42:14.881Z,15.88
2019-03-19T10:44:46.319Z,15.48
2019-03-19T10:47:17.647Z,15.71
2019-03-19T10:49:49.026Z,15.55
2019-03-19T10:52:20.537Z,15.48
2019-03-19T10:54:51.851Z,16.36
2019-03-19T10:57:23.250Z,16.37
2019-03-19T10:59:57.624Z,16.25
2019-03-19T11:02:29.050Z,16.10
2019-03-19T11:05:00.397Z,15.83
2019-03-19T11:07:31.705Z,15.28
2019-03-19T11:10:06.459Z,15.71
2019-03-19T11:12:37.799Z,15.89
2019-03-19T11:15:13.046Z,16.10
2019-03-19T11:17:44.372Z,16.28
2019-03-19T11:20:18.187Z,16.52
2019-03-19T11:22:49.593Z,16.45
2019-03-19T11:25:29.225Z,16.57
2019-03-19T11:28:00.570Z,16.34
2019-03-19T11:30:32.582Z,16.10
2019-03-19T11:33:03.997Z,16.58
2019-03-19T11:35:35.243Z,16.62
2019-03-19T11:38:06.416Z,16.54
2019-03-19T11:40:37.792Z,16.81
2019-03-19T11:43:09.561Z,17.03
2019-03-19T11:45:42.755Z,16.59
2019-03-19T11:48:16.253Z,16.88
2019-03-19T11:50:47.562Z,16.58
2019-03-19T11:53:18.934Z,16.77
2019-03-19T11:55:50.206Z,16.36
2019-03-19T11:58:21.492Z,16.53
2019-03-19T12:01:04.106Z,17.00
2019-03-19T12:03:49.629Z,16.75
2019-03-19T12:06:29.011Z,16.55
2019-03-19T12:09:07.402Z,16.60
2019-03-19T12:11:40.388Z,16.84
2019-03-19T12:14:14.972Z,16.66
2019-03-19T12:16:51.209Z,16.84
2019-03-19T12:19:22.565Z,16.65
2019-03-19T12:21:53.752Z,16.82
2019-03-19T12:24:26.628Z,16.94
2019-03-19T12:26:58.997Z,16.35
2019-03-19T12:29:30.329Z,16.15
2019-03-19T12:32:01.720Z,16.22
2019-03-19T12:34:33.532Z,16.63
2019-03-19T12:37:05.882Z,16.11
2019-03-19T12:39:37.264Z,16.28
2019-03-19T12:42:08.522Z,16.28
2019-03-19T12:44:39.719Z,16.23
2019-03-19T12:47:11.033Z,16.40
2019-03-19T12:49:42.314Z,15.75
2019-03-19T12:52:13.700Z,16.23
2019-03-19T12:54:47.043Z,16.13
2019-03-19T12:57:18.447Z,16.16
2019-03-19T13:02:43.545Z,16.51
2019-03-19T13:05:15.769Z,16.33
2019-03-19T13:07:46.987Z,16.23
2019-03-19T13:10:24.934Z,16.21
2019-03-19T13:12:56.358Z,16.46
2019-03-19T13:15:27.617Z,16.34
2019-03-19T13:17:59.034Z,16.57
2019-03-19T13:20:30.471Z,16.23
2019-03-19T13:23:01.854Z,16.08
2019-03-19T13:25:33.199Z,15.87
2019-03-19T13:28:04.755Z,15.97
2019-03-19T13:30:44.557Z,16.14
2019-03-19T13:33:09.225Z,16.28
2019-03-19T13:35:40.563Z,16.19
2019-03-19T13:38:12.763Z,16.24
2019-03-19T13:40:44.348Z,16.21
2019-03-19T13:43:15.593Z,15.78
2019-03-19T13:45:47.104Z,15.87
2019-03-19T13:48:18.488Z,15.66
2019-03-19T13:50:49.873Z,15.66
2019-03-19T13:53:21.155Z,15.75
2019-03-19T13:55:52.497Z,15.90
2019-03-19T13:58:23.850Z,15.75
2019-03-19T14:00:55.972Z,15.64
2019-03-19T14:03:27.521Z,15.57
2019-03-19T14:05:59.061Z,15.43
2019-03-19T14:08:30.444Z,15.55
2019-03-19T14:11:01.843Z,15.54
2019-03-19T14:13:33.131Z,15.48
2019-03-19T14:16:04.513Z,15.06
2019-03-19T14:18:35.928Z,15.18
2019-03-19T14:21:07.371Z,15.18
2019-03-19T14:23:38.726Z,15.15
2019-03-19T14:26:10.130Z,15.02
2019-03-19T14:28:41.646Z,15.02
2019-03-19T14:31:12.907Z,14.82
2019-03-19T14:33:44.293Z,14.89
2019-03-19T14:36:15.707Z,14.89
2019-03-19T14:38:47.516Z,14.79
2019-03-19T14:41:19.117Z,14.70
2019-03-19T14:43:50.471Z,14.71
2019-03-19T14:46:21.790Z,14.66
2019-03-19T14:48:53.143Z,14.62
2019-03-19T14:51:24.495Z,14.45
2019-03-19T14:53:56.894Z,14.44
2019-03-19T14:56:28.294Z,14.43
2019-03-19T14:58:59.595Z,14.28
2019-03-19T15:01:30.946Z,14.34
2019-03-19T15:04:02.376Z,14.35
2019-03-19T15:06:33.855Z,14.29
2019-03-19T15:09:06.685Z,14.16
2019-03-19T15:11:38.181Z,14.14
2019-03-19T15:14:09.604Z,13.97
2019-03-19T15:16:40.992Z,13.91
2019-03-19T15:19:12.351Z,13.80
2019-03-19T15:21:43.749Z,13.60
2019-03-19T15:24:15.127Z,13.67
2019-03-19T15:26:46.526Z,13.55
2019-03-19T15:29:18.051Z,13.51
2019-03-19T15:31:49.309Z,13.56
2019-03-19T15:34:21.776Z,13.44
2019-03-19T15:36:53.187Z,13.44
2019-03-19T15:39:24.459Z,13.38
2019-03-19T15:41:55.863Z,13.16
2019-03-19T15:44:27.201Z,13.18
2019-03-19T15:46:58.518Z,13.15
2019-03-19T15:49:38.194Z,12.94
2019-03-19T15:52:05.918Z,12.83
2019-03-19T15:54:37.308Z,12.80
2019-03-19T15:57:09.784Z,12.51
2019-03-19T15:59:41.139Z,12.37
2019-03-19T16:02:12.471Z,12.27
2019-03-19T16:04:43.801Z,12.21
2019-03-19T16:07:15.184Z,12.03
2019-03-19T16:09:46.538Z,11.92
2019-03-19T16:12:17.915Z,11.82
2019-03-19T16:14:49.274Z,11.67
2019-03-19T16:17:20.601Z,11.68
2019-03-19T16:19:51.853Z,11.61
2019-03-19T16:22:23.154Z,11.57
2019-03-19T16:24:54.750Z,11.53
2019-03-19T16:27:25.983Z,11.47
2019-03-19T16:29:57.324Z,11.37
2019-03-19T16:32:28.737Z,11.31
2019-03-19T16:35:00.417Z,11.31
2019-03-19T16:37:31.816Z,11.26
2019-03-19T16:40:03.184Z,11.19
2019-03-19T16:42:34.508Z,11.17
2019-03-19T16:45:08.944Z,11.09
2019-03-19T16:47:40.363Z,11.08
2019-03-19T16:50:16.880Z,10.99
2019-03-19T16:52:48.207Z,10.91
2019-03-19T16:55:20.692Z,10.84
2019-03-19T16:57:52.043Z,10.82
2019-03-19T17:00:24.765Z,10.80
2019-03-19T17:02:56.074Z,10.74
2019-03-19T17:05:27.419Z,10.63
2019-03-19T17:07:58.747Z,10.59
2019-03-19T17:10:32.443Z,10.55
2019-03-19T17:13:04.110Z,10.45
2019-03-19T17:15:35.392Z,10.33
2019-03-19T17:18:06.720Z,10.27
2019-03-19T17:20:37.940Z,10.34
2019-03-19T17:23:09.374Z,10.35
2019-03-19T17:25:40.740Z,10.33
2019-03-19T17:28:21.876Z,10.26
2019-03-19T17:30:45.125Z,10.23
2019-03-19T17:33:16.455Z,9.99
2019-03-19T17:35:47.880Z,9.81
2019-03-19T17:38:19.307Z,9.87
2019-03-19T17:40:50.680Z,9.82
2019-03-19T17:43:22.112Z,9.73
2019-03-19T17:45:53.491Z,9.61
2019-03-19T17:48:53.493Z,9.54
2019-03-19T17:51:29.054Z,9.61
2019-03-19T17:54:00.383Z,9.59
2019-03-19T17:56:51.791Z,9.59
2019-03-19T17:59:23.201Z,9.51
2019-03-19T18:01:54.530Z,9.47
2019-03-19T18:04:25.937Z,9.41
2019-03-19T18:06:57.362Z,9.37
2019-03-19T18:09:28.721Z,9.51
2019-03-19T18:12:00.166Z,9.43
2019-03-19T18:14:31.503Z,9.35
2019-03-19T18:17:02.713Z,9.32
2019-03-19T18:19:34.141Z,9.32
2019-03-19T18:22:05.489Z,9.08
2019-03-19T18:24:36.856Z,9.07
2019-03-19T18:27:08.188Z,9.15
2019-03-19T18:29:39.422Z,9.08
2019-03-19T18:32:10.688Z,8.97
2019-03-19T18:34:42.066Z,8.98
2019-03-19T18:37:14.552Z,8.98
2019-03-19T18:39:45.906Z,8.90
2019-03-19T18:42:17.320Z,8.81
2019-03-19T18:44:48.714Z,8.78
2019-03-19T18:47:20.113Z,8.63
2019-03-19T18:49:52.567Z,8.59
2019-03-19T18:52:24.039Z,8.66
2019-03-19T18:54:55.431Z,8.48
2019-03-19T18:57:26.805Z,8.48
2019-03-19T18:59:58.209Z,8.42
2019-03-19T19:02:29.481Z,8.43
2019-03-19T19:05:00.880Z,8.37
2019-03-19T19:07:32.228Z,8.34
2019-03-19T19:10:08.700Z,8.36
2019-03-19T19:12:40.171Z,8.32
2019-03-19T19:15:14.144Z,8.26
2019-03-19T19:17:45.473Z,8.33
2019-03-19T19:20:17.336Z,8.27
2019-03-19T19:22:48.834Z,8.14
2019-03-19T19:25:26.915Z,8.17
2019-03-19T19:27:58.312Z,8.17
2019-03-19T19:30:30.960Z,8.15
2019-03-19T19:33:03.388Z,8.10
2019-03-19T19:35:34.733Z,8.06
2019-03-19T19:38:06.077Z,8.04
2019-03-19T19:40:39.664Z,8.02
2019-03-19T19:43:11.059Z,7.95
2019-03-19T19:45:42.330Z,7.96
2019-03-19T19:48:13.862Z,7.87
2019-03-19T19:50:45.283Z,7.88
2019-03-19T19:53:16.718Z,7.79
2019-03-19T19:55:48.479Z,7.77
2019-03-19T19:58:19.859Z,7.60
2019-03-19T20:00:52.144Z,7.58
2019-03-19T20:03:23.505Z,7.62
2019-03-19T20:05:55.895Z,7.72
2019-03-19T20:08:27.289Z,7.69
2019-03-19T20:10:58.696Z,7.99
2019-03-19T20:13:30.069Z,7.86
2019-03-19T20:16:01.536Z,7.95
2019-03-19T20:18:32.873Z,7.97
2019-03-19T20:21:04.276Z,8.18
2019-03-19T20:23:35.670Z,8.48
2019-03-19T20:26:07.080Z,8.56
2019-03-19T20:28:38.424Z,8.62
2019-03-19T20:31:09.755Z,8.68
2019-03-19T20:33:41.200Z,8.85
2019-03-19T20:36:12.456Z,8.73
2019-03-19T20:38:43.766Z,8.81
2019-03-19T20:41:15.123Z,8.69
2019-03-19T20:43:46.533Z,8.73
2019-03-19T20:46:17.913Z,8.71
2019-03-19T20:48:50.181Z,8.70
2019-03-19T20:51:21.514Z,8.71
2019-03-19T20:53:52.765Z,8.73
2019-03-19T20:56:24.067Z,8.66
2019-03-19T20:58:55.398Z,8.60
2019-03-19T21:01:26.765Z,8.54
2019-03-19T21:03:58.094Z,8.44
2019-03-19T21:06:29.523Z,8.35
2019-03-19T21:09:00.971Z,8.23
2019-03-19T21:11:33.745Z,8.23
2019-03-19T21:14:05.139Z,8.22
2019-03-19T21:16:36.496Z,8.15
2019-03-19T21:19:09.251Z,8.17
2019-03-19T21:21:40.775Z,8.18
2019-03-19T21:24:11.955Z,8.16
2019-03-19T21:26:43.389Z,8.24
2019-03-19T21:29:15.770Z,8.16
2019-03-19T21:31:47.166Z,8.07
2019-03-19T21:34:18.558Z,8.00
2019-03-19T21:36:49.951Z,8.04
2019-03-19T21:39:21.142Z,8.02
2019-03-19T21:41:52.440Z,7.96
2019-03-19T21:44:23.796Z,7.97
2019-03-19T21:46:55.130Z,8.02
2019-03-19T21:49:26.563Z,8.04
2019-03-19T21:51:57.943Z,7.99
2019-03-19T21:54:29.340Z,7.95
2019-03-19T21:57:00.740Z,8.11
2019-03-19T21:59:32.182Z,7.99
2019-03-19T22:02:03.469Z,8.07
2019-03-19T22:04:34.879Z,8.00
2019-03-19T22:07:06.263Z,7.98
2019-03-19T22:09:37.632Z,7.98
2019-03-19T22:12:08.977Z,7.94
2019-03-19T22:14:40.257Z,7.86
2019-03-19T22:17:11.633Z,7.88
2019-03-19T22:19:43.095Z,7.74
2019-03-19T22:22:14.451Z,7.85
2019-03-19T22:24:47.006Z,7.98
2019-03-19T22:27:18.372Z,7.92
2019-03-19T22:29:49.771Z,7.96
2019-03-19T22:32:21.115Z,7.91
2019-03-19T22:34:52.434Z,7.85
2019-03-19T22:37:23.822Z,7.62
2019-03-19T22:39:55.134Z,7.66
2019-03-19T22:42:26.523Z,7.80
2019-03-19T22:44:57.958Z,7.71
2019-03-19T22:47:29.388Z,7.62
2019-03-19T22:50:00.699Z,7.46
2019-03-19T22:52:32.030Z,7.41
2019-03-19T22:55:03.192Z,7.40
2019-03-19T22:57:34.578Z,7.24
2019-03-19T23:00:19.015Z,7.12
2019-03-19T23:02:51.963Z,7.09
2019-03-19T23:05:23.380Z,7.12
2019-03-19T23:07:54.802Z,7.04
2019-03-19T23:10:26.154Z,6.85
2019-03-19T23:12:57.594Z,6.86
2019-03-19T23:15:28.955Z,6.98
2019-03-19T23:18:00.482Z,6.96
2019-03-19T23:20:31.732Z,6.98
2019-03-19T23:23:03.145Z,6.82
2019-03-19T23:25:34.419Z,6.80
2019-03-19T23:28:05.980Z,6.78
2019-03-19T23:30:37.313Z,6.73
2019-03-19T23:33:08.758Z,6.73
2019-03-19T23:35:40.119Z,6.80
2019-03-19T23:38:11.502Z,6.53
2019-03-19T23:40:42.857Z,6.48
2019-03-19T23:43:14.239Z,6.42
2019-03-19T23:45:45.621Z,6.39
2019-03-19T23:48:16.990Z,6.40
2019-03-19T23:50:48.465Z,6.37
2019-03-19T23:53:19.812Z,6.29
2019-03-19T23:55:51.139Z,6.21
2019-03-19T23:58:23.479Z,6.29
